createdAt,value
2019-02-26T00:01:24.116Z,12.30
2019-02-26T00:03:50.279Z,12.70
2019-02-26T00:06:20.570Z,14.65
2019-02-26T00:08:49.306Z,15.60
2019-02-26T00:11:16.078Z,14.90
2019-02-26T00:13:44.890Z,11.08
2019-02-26T00:16:15.413Z,12.60
2019-02-26T00:18:42.693Z,12.37
2019-02-26T00:21:10.330Z,12.20
2019-02-26T00:23:39.211Z,13.88
2019-02-26T00:26:10.474Z,14.23
2019-02-26T00:28:37.113Z,13.50
2019-02-26T00:31:05.973Z,13.08
2019-02-26T00:33:33.885Z,14.03
2019-02-26T00:36:04.484Z,13.83
2019-02-26T00:38:33.011Z,13.90
2019-02-26T00:41:02.199Z,14.33
2019-02-26T00:43:30.645Z,12.45
2019-02-26T00:45:58.271Z,13.43
2019-02-26T00:48:25.975Z,14.38
2019-02-26T00:50:56.460Z,13.18
2019-02-26T00:53:23.590Z,13.25
2019-02-26T00:55:54.296Z,12.13
2019-02-26T00:58:20.931Z,12.63
2019-02-26T01:00:49.436Z,13.48
2019-02-26T01:03:17.879Z,12.70
2019-02-26T01:05:46.390Z,11.22
2019-02-26T01:08:15.788Z,11.25
2019-02-26T01:10:44.119Z,12.10
2019-02-26T01:13:12.006Z,11.68
2019-02-26T01:15:40.516Z,12.60
2019-02-26T01:18:08.969Z,12.95
2019-02-26T01:20:37.474Z,12.23
2019-02-26T01:23:05.934Z,13.45
2019-02-26T01:25:38.238Z,14.33
2019-02-26T01:28:04.402Z,13.48
2019-02-26T01:30:35.660Z,15.10
2019-02-26T01:33:03.232Z,15.75
2019-02-26T01:35:30.685Z,15.75
2019-02-26T01:38:00.452Z,19.07
2019-02-26T01:40:27.065Z,17.67
2019-02-26T01:42:57.918Z,17.17
2019-02-26T01:45:25.022Z,17.52
2019-02-26T01:47:52.768Z,16.35
2019-02-26T01:50:20.971Z,15.43
2019-02-26T01:52:51.730Z,17.80
2019-02-26T01:55:20.606Z,16.00
2019-02-26T01:57:47.138Z,17.70
2019-02-26T02:00:16.152Z,19.20
2019-02-26T02:02:44.872Z,16.70
2019-02-26T02:05:13.391Z,15.80
2019-02-26T02:07:41.888Z,14.85
2019-02-26T02:10:11.010Z,14.90
2019-02-26T02:12:41.392Z,16.00
2019-02-26T02:15:10.063Z,15.48
2019-02-26T02:17:38.370Z,14.85
2019-02-26T02:20:07.852Z,15.15
2019-02-26T02:22:35.304Z,15.43
2019-02-26T02:25:03.062Z,14.15
2019-02-26T02:27:33.283Z,13.70
2019-02-26T02:30:00.719Z,14.83
2019-02-26T02:32:31.753Z,15.03
2019-02-26T02:35:00.625Z,13.43
2019-02-26T02:37:29.444Z,13.48
2019-02-26T02:39:55.696Z,12.63
2019-02-26T02:42:24.191Z,12.28
2019-02-26T02:44:52.916Z,12.82
2019-02-26T02:47:21.135Z,15.08
2019-02-26T02:49:49.631Z,15.05
2019-02-26T02:52:18.499Z,14.93
2019-02-26T02:54:47.688Z,14.47
2019-02-26T02:57:15.497Z,15.75
2019-02-26T02:59:43.945Z,18.92
2019-02-26T03:02:14.467Z,15.40
2019-02-26T03:04:41.255Z,13.80
2019-02-26T03:07:09.695Z,13.53
2019-02-26T03:09:40.526Z,13.78
2019-02-26T03:12:06.672Z,13.10
2019-02-26T03:14:38.471Z,13.30
2019-02-26T03:17:06.431Z,13.35
2019-02-26T03:19:35.124Z,13.20
2019-02-26T03:22:01.717Z,13.65
2019-02-26T03:24:31.354Z,13.22
2019-02-26T03:26:58.678Z,14.25
2019-02-26T03:29:27.482Z,14.65
2019-02-26T03:31:55.953Z,15.13
2019-02-26T03:34:25.617Z,14.55
2019-02-26T03:36:53.431Z,14.68
2019-02-26T03:39:22.934Z,15.83
2019-02-26T03:41:53.508Z,14.53
2019-02-26T03:44:21.014Z,15.35
2019-02-26T03:46:49.490Z,14.25
2019-02-26T03:49:17.970Z,15.48
2019-02-26T03:51:46.458Z,15.00
2019-02-26T03:54:40.270Z,15.25
2019-02-26T03:57:11.328Z,16.82
2019-02-26T03:59:37.804Z,16.93
2019-02-26T04:02:07.276Z,16.97
2019-02-26T04:04:34.751Z,16.93
2019-02-26T04:07:04.919Z,15.83
2019-02-26T04:09:31.773Z,17.00
2019-02-26T04:12:00.296Z,17.10
2019-02-26T04:14:30.688Z,16.57
2019-02-26T04:16:58.703Z,16.17
2019-02-26T04:19:26.858Z,16.95
2019-02-26T04:22:15.134Z,16.00
2019-02-26T04:24:41.848Z,14.35
2019-02-26T04:27:44.153Z,14.70
2019-02-26T04:30:25.668Z,14.65
2019-02-26T04:33:11.454Z,14.25
2019-02-26T04:35:57.310Z,13.53
2019-02-26T04:38:48.984Z,14.83
2019-02-26T04:41:22.635Z,14.73
2019-02-26T04:44:19.442Z,16.05
2019-02-26T04:47:06.227Z,15.18
2019-02-26T04:49:38.357Z,15.32
2019-02-26T04:52:05.542Z,14.40
2019-02-26T04:54:33.658Z,17.23
2019-02-26T04:57:00.135Z,17.25
2019-02-26T04:59:29.899Z,17.00
2019-02-26T05:01:57.549Z,14.75
2019-02-26T05:04:27.937Z,15.78
2019-02-26T05:06:54.820Z,16.50
2019-02-26T05:09:25.314Z,15.65
2019-02-26T05:11:53.869Z,15.47
2019-02-26T05:14:23.669Z,15.40
2019-02-26T05:16:50.811Z,13.78
2019-02-26T05:19:21.800Z,15.90
2019-02-26T05:21:47.763Z,14.90
2019-02-26T05:24:18.091Z,14.73
2019-02-26T05:26:45.031Z,14.00
2019-02-26T05:29:13.528Z,14.47
2019-02-26T05:31:43.190Z,13.60
2019-02-26T05:34:12.517Z,15.20
2019-02-26T05:36:42.086Z,15.18
2019-02-26T05:39:08.130Z,14.75
2019-02-26T05:41:37.408Z,14.68
2019-02-26T05:44:08.370Z,13.93
2019-02-26T05:46:35.196Z,15.13
2019-02-26T05:49:06.874Z,15.80
2019-02-26T05:51:33.473Z,12.65
2019-02-26T05:54:02.207Z,14.33
2019-02-26T05:56:29.577Z,15.05
2019-02-26T05:59:02.042Z,14.70
2019-02-26T06:01:27.920Z,13.70
2019-02-26T06:03:56.940Z,14.10
2019-02-26T06:06:25.426Z,13.62
2019-02-26T06:08:55.195Z,15.48
2019-02-26T06:11:22.403Z,13.60
2019-02-26T06:13:50.880Z,15.53
2019-02-26T06:16:21.666Z,13.95
2019-02-26T06:18:49.108Z,12.93
2019-02-26T06:21:18.432Z,14.25
2019-02-26T06:23:48.917Z,15.75
2019-02-26T06:26:18.122Z,14.98
2019-02-26T06:28:48.458Z,13.93
2019-02-26T06:31:17.592Z,14.30
2019-02-26T06:33:45.930Z,15.63
2019-02-26T06:36:13.203Z,16.10
2019-02-26T06:38:41.917Z,15.45
2019-02-26T06:41:10.791Z,13.62
2019-02-26T06:43:39.853Z,14.63
2019-02-26T06:46:09.850Z,14.38
2019-02-26T06:48:37.268Z,14.78
2019-02-26T06:51:07.160Z,15.28
2019-02-26T06:53:34.233Z,15.15
2019-02-26T06:56:02.741Z,15.60
2019-02-26T06:58:31.219Z,16.00
2019-02-26T07:01:00.070Z,16.30
2019-02-26T07:03:28.980Z,14.98
2019-02-26T07:06:01.642Z,16.55
2019-02-26T07:08:30.382Z,16.25
2019-02-26T07:10:55.753Z,16.52
2019-02-26T07:13:24.234Z,17.30
2019-02-26T07:15:55.932Z,18.25
2019-02-26T07:18:24.459Z,20.30
2019-02-26T07:20:57.170Z,21.25
2019-02-26T07:23:22.756Z,14.55
2019-02-26T07:25:51.276Z,14.45
2019-02-26T07:28:20.626Z,16.17
2019-02-26T07:30:48.216Z,16.37
2019-02-26T07:33:17.076Z,15.80
2019-02-26T07:35:45.844Z,17.07
2019-02-26T07:38:16.190Z,17.10
2019-02-26T07:40:42.854Z,18.90
2019-02-26T07:43:14.392Z,17.77
2019-02-26T07:45:39.815Z,16.05
2019-02-26T07:48:08.383Z,14.60
2019-02-26T07:50:39.672Z,14.93
2019-02-26T07:53:05.603Z,16.05
2019-02-26T07:55:35.422Z,15.83
2019-02-26T07:58:02.715Z,15.30
2019-02-26T08:00:32.846Z,14.53
2019-02-26T08:03:00.167Z,16.10
2019-02-26T08:05:28.957Z,14.00
2019-02-26T08:07:57.063Z,15.85
2019-02-26T08:10:25.819Z,15.05
2019-02-26T08:12:56.635Z,14.35
2019-02-26T08:15:23.521Z,15.00
2019-02-26T08:17:57.353Z,15.40
2019-02-26T08:20:20.870Z,16.30
2019-02-26T08:22:51.651Z,15.48
2019-02-26T08:25:18.395Z,15.28
2019-02-26T08:27:49.314Z,13.45
2019-02-26T08:30:18.537Z,14.87
2019-02-26T08:32:48.417Z,14.47
2019-02-26T08:35:12.996Z,14.75
2019-02-26T08:37:43.444Z,14.13
2019-02-26T08:40:12.653Z,14.13
2019-02-26T08:42:41.154Z,13.18
2019-02-26T08:45:12.502Z,13.72
2019-02-26T08:47:39.612Z,14.10
2019-02-26T08:50:12.358Z,14.95
2019-02-26T08:52:40.344Z,13.62
2019-02-26T08:55:10.735Z,14.13
2019-02-26T08:57:38.676Z,14.78
2019-02-26T09:00:16.663Z,14.07
2019-02-26T09:02:46.119Z,13.27
2019-02-26T09:05:13.614Z,14.20
2019-02-26T09:07:43.271Z,14.07
2019-02-26T09:10:12.468Z,14.28
2019-02-26T09:12:41.346Z,13.88
2019-02-26T09:15:09.639Z,13.68
2019-02-26T09:17:41.348Z,14.18
2019-02-26T09:20:11.631Z,13.30
2019-02-26T09:22:37.512Z,14.03
2019-02-26T09:25:05.983Z,13.40
2019-02-26T09:27:42.513Z,14.33
2019-02-26T09:30:05.768Z,14.80
2019-02-26T09:32:32.650Z,14.98
2019-02-26T09:35:04.734Z,14.30
2019-02-26T09:37:31.532Z,14.93
2019-02-26T09:40:02.737Z,14.60
2019-02-26T09:42:30.195Z,14.38
2019-02-26T09:44:57.744Z,15.08
2019-02-26T09:47:30.986Z,15.65
2019-02-26T09:49:58.479Z,15.08
2019-02-26T09:52:27.675Z,15.08
2019-02-26T09:54:55.765Z,14.80
2019-02-26T09:57:26.338Z,15.63
2019-02-26T09:59:57.335Z,14.95
2019-02-26T10:02:24.658Z,16.12
2019-02-26T10:04:52.512Z,15.05
2019-02-26T10:07:20.165Z,14.80
2019-02-26T10:09:48.655Z,14.90
2019-02-26T10:12:18.193Z,15.93
2019-02-26T10:14:49.721Z,14.50
2019-02-26T10:17:19.100Z,14.75
2019-02-26T10:19:45.156Z,15.32
2019-02-26T10:22:13.834Z,14.70
2019-02-26T10:24:42.120Z,14.78
2019-02-26T10:27:11.431Z,15.25
2019-02-26T10:29:41.965Z,15.75
2019-02-26T10:32:11.248Z,13.80
2019-02-26T10:34:36.763Z,14.55
2019-02-26T10:37:05.206Z,14.45
2019-02-26T10:39:33.692Z,15.35
2019-02-26T10:42:02.759Z,14.95
2019-02-26T10:44:31.359Z,14.05
2019-02-26T10:47:01.215Z,15.00
2019-02-26T10:49:28.759Z,14.15
2019-02-26T10:51:57.745Z,15.20
2019-02-26T10:54:25.578Z,15.20
2019-02-26T10:56:54.093Z,14.60
2019-02-26T10:59:23.647Z,12.93
2019-02-26T11:01:55.198Z,14.47
2019-02-26T11:04:21.976Z,15.45
2019-02-26T11:06:50.417Z,13.80
2019-02-26T11:09:25.412Z,13.35
2019-02-26T11:11:47.856Z,13.50
2019-02-26T11:14:17.574Z,12.60
2019-02-26T11:16:45.415Z,13.18
2019-02-26T11:19:14.174Z,12.55
2019-02-26T11:21:42.958Z,13.62
2019-02-26T11:24:11.460Z,11.75
2019-02-26T11:26:40.955Z,11.05
2019-02-26T11:29:08.927Z,10.95
2019-02-26T11:31:39.747Z,11.40
2019-02-26T11:34:10.000Z,11.45
2019-02-26T11:36:38.299Z,12.05
2019-02-26T11:39:06.906Z,11.65
2019-02-26T11:41:35.912Z,11.67
2019-02-26T11:44:07.158Z,11.80
2019-02-26T11:46:34.296Z,10.95
2019-02-26T11:48:59.855Z,10.78
2019-02-26T11:51:36.878Z,12.43
2019-02-26T11:54:00.048Z,12.15
2019-02-26T11:56:27.019Z,12.30
2019-02-26T11:58:55.540Z,11.57
2019-02-26T12:01:24.373Z,11.83
2019-02-26T12:03:55.767Z,11.35
2019-02-26T12:06:23.584Z,11.70
2019-02-26T12:08:52.013Z,11.70
2019-02-26T12:11:23.095Z,12.10
2019-02-26T12:13:53.117Z,12.60
2019-02-26T12:16:19.397Z,11.57
2019-02-26T12:18:47.876Z,12.28
2019-02-26T12:21:16.747Z,12.53
2019-02-26T12:23:46.752Z,11.63
2019-02-26T12:26:16.330Z,11.28
2019-02-26T12:28:42.453Z,11.75
2019-02-26T12:31:13.033Z,12.03
2019-02-26T12:33:41.468Z,11.30
2019-02-26T12:36:10.709Z,11.90
2019-02-26T12:38:39.466Z,11.50
2019-02-26T12:41:09.079Z,13.68
2019-02-26T12:43:42.667Z,12.05
2019-02-26T12:46:08.461Z,11.75
2019-02-26T12:48:37.853Z,12.00
2019-02-26T12:51:04.712Z,12.10
2019-02-26T12:53:46.799Z,11.83
2019-02-26T12:56:12.816Z,11.48
2019-02-26T12:58:45.119Z,10.38
2019-02-26T13:01:10.984Z,10.95
2019-02-26T13:03:42.550Z,10.30
2019-02-26T13:06:09.951Z,10.75
2019-02-26T13:08:39.650Z,9.05
2019-02-26T13:11:05.105Z,6.90
2019-02-26T13:13:34.607Z,5.35
2019-02-26T13:16:03.095Z,5.42
2019-02-26T13:18:31.558Z,5.78
2019-02-26T13:21:03.706Z,5.83
2019-02-26T13:23:29.554Z,5.95
2019-02-26T13:25:58.047Z,6.00
2019-02-26T13:28:29.537Z,4.80
2019-02-26T13:31:01.308Z,5.22
2019-02-26T13:33:33.137Z,6.47
2019-02-26T13:38:24.220Z,6.33
2019-02-26T13:40:49.691Z,6.33
2019-02-26T13:43:18.221Z,7.05
2019-02-26T13:45:46.728Z,7.57
2019-02-26T13:48:15.169Z,6.87
2019-02-26T13:50:43.665Z,7.50
2019-02-26T13:53:13.396Z,6.65
2019-02-26T13:55:41.899Z,6.92
2019-02-26T13:58:12.039Z,6.35
2019-02-26T14:00:39.918Z,6.30
2019-02-26T14:03:08.415Z,5.78
2019-02-26T14:05:38.433Z,6.42
2019-02-26T14:08:05.399Z,5.53
2019-02-26T14:10:34.195Z,5.17
2019-02-26T14:13:03.851Z,6.75
2019-02-26T14:15:31.329Z,6.20
2019-02-26T14:18:00.111Z,6.10
2019-02-26T14:20:28.605Z,6.65
2019-02-26T14:22:57.089Z,6.60
2019-02-26T14:25:26.589Z,5.58
2019-02-26T14:27:55.070Z,6.47
2019-02-26T14:30:23.544Z,6.58
2019-02-26T14:32:52.429Z,6.80
2019-02-26T14:35:21.847Z,6.40
2019-02-26T14:37:50.412Z,7.03
2019-02-26T14:40:18.806Z,6.45
2019-02-26T14:42:47.279Z,7.08
2019-02-26T14:45:15.770Z,7.47
2019-02-26T14:47:45.564Z,7.70
2019-02-26T14:50:14.694Z,7.78
2019-02-26T14:52:43.415Z,7.20
2019-02-26T14:55:12.362Z,7.78
2019-02-26T14:57:41.557Z,6.87
2019-02-26T15:00:11.605Z,7.08
2019-02-26T15:02:40.059Z,7.42
2019-02-26T15:05:08.511Z,7.25
2019-02-26T15:07:37.018Z,7.95
2019-02-26T15:10:05.595Z,8.20
2019-02-26T15:12:34.087Z,7.40
2019-02-26T15:15:02.509Z,7.58
2019-02-26T15:17:31.005Z,7.45
2019-02-26T15:19:59.405Z,7.85
2019-02-26T15:22:28.300Z,7.58
2019-02-26T15:24:57.815Z,8.25
2019-02-26T15:27:35.763Z,8.20
2019-02-26T15:29:54.786Z,7.47
2019-02-26T15:32:23.245Z,8.15
2019-02-26T15:34:51.747Z,8.40
2019-02-26T15:37:20.589Z,8.33
2019-02-26T15:39:51.210Z,7.87
2019-02-26T15:42:19.134Z,8.68
2019-02-26T15:44:46.289Z,8.68
2019-02-26T15:47:15.175Z,9.43
2019-02-26T15:49:43.647Z,10.63
2019-02-26T15:52:12.438Z,11.95
2019-02-26T15:54:40.967Z,11.70
2019-02-26T15:57:09.708Z,11.05
2019-02-26T15:59:38.195Z,8.88
2019-02-26T16:02:06.645Z,8.43
2019-02-26T16:04:35.224Z,7.42
2019-02-26T16:07:04.114Z,8.00
2019-02-26T16:09:32.721Z,7.83
2019-02-26T16:12:01.175Z,8.43
2019-02-26T16:14:29.678Z,8.70
2019-02-26T16:16:58.093Z,8.83
2019-02-26T16:19:27.716Z,8.48
2019-02-26T16:21:57.154Z,9.63
2019-02-26T16:24:25.716Z,8.28
2019-02-26T16:26:54.244Z,9.60
2019-02-26T16:29:22.778Z,9.05
2019-02-26T16:31:51.276Z,8.88
2019-02-26T16:34:20.516Z,9.15
2019-02-26T16:36:48.647Z,9.28
2019-02-26T16:39:17.446Z,8.58
2019-02-26T16:41:47.047Z,8.75
2019-02-26T16:44:18.305Z,9.25
2019-02-26T16:46:46.781Z,9.68
2019-02-26T16:49:15.340Z,10.13
2019-02-26T16:51:43.923Z,9.08
2019-02-26T16:54:13.933Z,9.80
2019-02-26T16:56:43.068Z,10.03
2019-02-26T16:59:12.971Z,10.80
2019-02-26T17:01:41.959Z,8.93
2019-02-26T17:04:10.522Z,11.40
2019-02-26T17:06:39.036Z,15.30
2019-02-26T17:09:07.571Z,12.47
2019-02-26T17:11:36.109Z,11.03
2019-02-26T17:14:04.572Z,10.45
2019-02-26T17:16:33.073Z,10.58
2019-02-26T17:19:01.507Z,12.37
2019-02-26T17:21:30.693Z,15.25
2019-02-26T17:23:58.518Z,15.32
2019-02-26T17:26:30.800Z,19.92
2019-02-26T17:28:57.825Z,22.93
2019-02-26T17:31:28.699Z,21.00
2019-02-26T17:33:55.983Z,16.15
2019-02-26T17:36:24.778Z,12.43
2019-02-26T17:38:53.269Z,9.77
2019-02-26T17:41:22.044Z,9.00
2019-02-26T17:43:50.531Z,9.35
2019-02-26T17:46:20.054Z,8.05
2019-02-26T17:48:48.622Z,8.73
2019-02-26T17:51:19.090Z,8.00
2019-02-26T17:53:45.590Z,6.28
2019-02-26T17:56:14.359Z,8.13
2019-02-26T17:58:43.989Z,7.05
2019-02-26T18:01:12.893Z,7.70
2019-02-26T18:03:47.170Z,7.25
2019-02-26T18:06:16.031Z,7.45
2019-02-26T18:08:44.836Z,7.25
2019-02-26T18:11:13.449Z,7.17
2019-02-26T18:13:41.914Z,7.92
2019-02-26T18:16:10.513Z,8.65
2019-02-26T18:18:43.219Z,8.15
2019-02-26T18:21:11.686Z,8.48
2019-02-26T18:23:40.201Z,8.53
2019-02-26T18:26:08.926Z,7.35
2019-02-26T18:28:37.545Z,7.35
2019-02-26T18:31:06.002Z,7.75
2019-02-26T18:33:36.218Z,7.75
2019-02-26T18:36:05.051Z,6.55
2019-02-26T18:38:33.554Z,6.40
2019-02-26T18:41:02.052Z,7.00
2019-02-26T18:43:30.754Z,6.58
2019-02-26T18:46:00.744Z,6.67
2019-02-26T18:48:27.750Z,7.35
2019-02-26T18:50:56.289Z,7.42
2019-02-26T18:53:26.018Z,7.53
2019-02-26T18:55:53.273Z,7.72
2019-02-26T18:58:22.095Z,7.30
2019-02-26T19:00:51.566Z,7.40
2019-02-26T19:03:20.058Z,8.25
2019-02-26T19:05:48.821Z,8.00
2019-02-26T19:08:18.955Z,7.92
2019-02-26T19:10:45.830Z,9.03
2019-02-26T19:13:14.311Z,8.48
2019-02-26T19:15:47.759Z,8.78
2019-02-26T19:18:11.993Z,8.10
2019-02-26T19:20:40.422Z,8.85
2019-02-26T19:23:08.930Z,8.85
2019-02-26T19:25:41.466Z,9.25
2019-02-26T19:28:05.878Z,8.80
2019-02-26T19:30:36.779Z,10.90
2019-02-26T19:33:03.912Z,9.10
2019-02-26T19:35:38.150Z,17.45
2019-02-26T19:38:01.947Z,19.32
2019-02-26T19:40:31.983Z,11.00
2019-02-26T19:43:00.334Z,9.78
2019-02-26T19:45:32.825Z,8.58
2019-02-26T19:48:01.685Z,8.43
2019-02-26T19:50:30.955Z,10.70
2019-02-26T19:53:02.275Z,8.13
2019-02-26T19:55:29.241Z,8.20
2019-02-26T19:57:58.051Z,8.10
2019-02-26T20:00:26.570Z,8.33
2019-02-26T20:02:55.028Z,8.18
2019-02-26T20:05:23.585Z,7.97
2019-02-26T20:07:53.196Z,9.25
2019-02-26T20:10:20.601Z,8.30
2019-02-26T20:12:50.105Z,8.58
2019-02-26T20:15:21.695Z,8.40
2019-02-26T20:17:49.147Z,9.25
2019-02-26T20:20:16.787Z,8.68
2019-02-26T20:22:44.768Z,9.05
2019-02-26T20:25:15.382Z,8.28
2019-02-26T20:27:44.856Z,9.68
2019-02-26T20:30:14.794Z,8.80
2019-02-26T20:32:43.539Z,9.70
2019-02-26T20:35:12.588Z,8.73
2019-02-26T20:37:40.547Z,8.70
2019-02-26T20:40:13.797Z,9.90
2019-02-26T20:42:39.866Z,9.80
2019-02-26T20:45:10.870Z,10.50
2019-02-26T20:47:39.614Z,9.45
2019-02-26T20:50:08.143Z,10.70
2019-02-26T20:52:45.598Z,10.18
2019-02-26T20:55:18.825Z,10.32
2019-02-26T20:57:44.776Z,10.43
2019-02-26T21:00:25.004Z,10.20
2019-02-26T21:02:56.350Z,9.80
2019-02-26T21:05:25.140Z,8.93
2019-02-26T21:07:58.096Z,10.05
2019-02-26T21:10:22.206Z,8.80
2019-02-26T21:12:50.697Z,10.65
2019-02-26T21:15:19.184Z,9.35
2019-02-26T21:17:48.047Z,9.55
2019-02-26T21:20:17.654Z,9.03
2019-02-26T21:22:46.871Z,9.90
2019-02-26T21:25:15.324Z,10.10
2019-02-26T21:27:43.866Z,10.00
2019-02-26T21:30:13.351Z,10.80
2019-02-26T21:32:41.815Z,9.53
2019-02-26T21:35:10.291Z,9.68
2019-02-26T21:37:39.068Z,9.20
2019-02-26T21:40:07.887Z,9.15
2019-02-26T21:42:36.440Z,9.35
2019-02-26T21:45:04.850Z,10.08
2019-02-26T21:47:33.303Z,9.93
2019-02-26T21:50:02.185Z,9.25
2019-02-26T21:52:30.678Z,9.55
2019-02-26T21:55:01.295Z,10.00
2019-02-26T21:57:27.948Z,10.32
2019-02-26T21:59:56.439Z,10.30
2019-02-26T22:02:24.905Z,11.60
2019-02-26T22:04:54.415Z,9.85
2019-02-26T22:07:22.896Z,9.90
2019-02-26T22:09:51.775Z,10.15
2019-02-26T22:12:21.825Z,9.63
2019-02-26T22:14:48.762Z,10.38
2019-02-26T22:17:17.700Z,10.00
2019-02-26T22:19:46.154Z,9.58
2019-02-26T22:22:14.601Z,10.60
2019-02-26T22:24:46.753Z,10.60
2019-02-26T22:27:15.183Z,10.88
2019-02-26T22:29:47.961Z,13.00
2019-02-26T22:32:18.676Z,13.58
2019-02-26T22:34:47.754Z,11.80
2019-02-26T22:37:16.843Z,10.82
2019-02-26T22:39:45.379Z,9.85
2019-02-26T22:42:14.396Z,10.43
2019-02-26T22:44:42.917Z,10.55
2019-02-26T22:47:13.552Z,10.75
2019-02-26T22:49:40.603Z,10.70
2019-02-26T22:52:09.073Z,12.00
2019-02-26T22:54:37.592Z,11.20
2019-02-26T22:57:06.645Z,12.15
2019-02-26T22:59:35.169Z,11.70
2019-02-26T23:02:03.744Z,10.82
2019-02-26T23:04:32.329Z,11.60
2019-02-26T23:07:04.422Z,11.20
2019-02-26T23:09:29.918Z,11.48
2019-02-26T23:11:58.464Z,12.60
2019-02-26T23:14:26.980Z,12.10
2019-02-26T23:16:55.498Z,12.28
2019-02-26T23:19:24.048Z,13.88
2019-02-26T23:21:52.510Z,13.80
2019-02-26T23:24:20.989Z,12.78
2019-02-26T23:26:50.447Z,13.88
2019-02-26T23:29:18.883Z,12.58
2019-02-26T23:31:48.075Z,13.45
2019-02-26T23:34:16.756Z,11.73
2019-02-26T23:36:45.213Z,11.73
2019-02-26T23:39:14.060Z,12.43
2019-02-26T23:41:42.822Z,12.70
2019-02-26T23:44:11.262Z,12.40
2019-02-26T23:46:39.743Z,12.10
2019-02-26T23:49:08.229Z,13.50
2019-02-26T23:51:36.700Z,14.03
2019-02-26T23:54:07.284Z,15.10
2019-02-26T23:56:33.654Z,13.18
2019-02-26T23:59:04.165Z,12.47
